Flight Track Log - Related Links

Times and Time Zones

All times are in EDT time to prevent confusion due to time zone crossing. See the ASQ5017 flight status page for this flight to view local times or setup timezone preferences in your user account.

Time Position Orientation Groundspeed Altitude Reporting Facility
EDT Latitude Longitude Course Direction KTS MPH feet Rate Location/Type
Tue 08:31:41 AM 40.7578 -73.8203 252° West 183 211 1,800  Level New York Center
Tue 08:32:42 AM 40.7883 -73.7669 53° Northeast 248 285 4,100 2,508 Climbing New York Center
Tue 08:33:43 AM 40.8514 -73.8272 324° Northwest 274 315 6,900 2,471 Climbing New York Center
Tue 08:34:41 AM 40.8825 -73.9081 297° West 281 323 9,000 2,168 Climbing New York Center
Tue 08:35:42 AM 40.8861 -74.0100 273° West 296 341 11,200 2,067 Climbing New York Center
Tue 08:36:40 AM 40.8664 -74.1133 256° West 325 374 13,100 2,047 Climbing New York Center
Tue 08:37:00 AM 40.5327 -74.6024 252° West  Level FlightAware Approximate
Tue 08:37:51 AM 40.8167 -74.2667 247° West 364 419 15,600  Level New York TRACON
Tue 08:39:42 AM 40.7078 -74.4694 235° Southwest 406 467 17,000 959 Climbing New York Center
Tue 08:40:40 AM 40.6414 -74.5917 234° Southwest 412 474 18,300 1,300 Climbing New York Center
Tue 08:41:42 AM 40.5731 -74.7108 233° Southwest 417 480 19,600 1,317 Climbing New York Center
Tue 08:42:43 AM 40.5044 -74.8297 233° Southwest 417 480 21,000 1,412 Climbing New York Center
Tue 08:43:41 AM 40.4333 -74.9536 233° Southwest 422 486 22,400 1,361 Climbing New York Center
Tue 08:44:42 AM 40.3564 -75.0661 228° Southwest 422 486 23,700 1,261 Climbing New York Center
Tue 08:45:40 AM 40.2817 -75.1678 226° Southwest 430 495 24,900 1,109 Climbing New York Center
Tue 08:46:41 AM 40.2022 -75.2850 228° Southwest 435 501 25,900 1,150 Climbing New York Center
Tue 08:47:40 AM 40.1186 -75.3989 226° Southwest 435 501 27,200 1,041 Climbing New York Center
Tue 08:48:42 AM 40.0347 -75.5153 227° Southwest 440 506 28,000 400 Climbing New York Center
Tue 08:49:40 AM 39.9486 -75.6342 227° Southwest 446 513 28,000  Level New York Center
Tue 08:50:41 AM 39.8639 -75.7633 230° Southwest 464 534 28,000 195 Level New York Center
Tue 08:51:43 AM 39.7833 -75.8956 232° Southwest 469 540 28,400 850 Climbing New York Center
Tue 08:52:41 AM 39.7006 -76.0217 230° Southwest 469 540 29,700 1,179 Climbing New York Center
Tue 08:53:40 AM 39.6239 -76.1481 232° Southwest 464 534 30,700 1,033 Climbing New York Center
Tue 08:54:43 AM 39.5300 -76.2864 229° Southwest 464 534 31,800 557 Climbing New York Center
Tue 08:56:00 AM 39.4208 -76.4619 231° Southwest 472 543 32,000 87 Climbing Washington Center
Tue 08:57:01 AM 39.3408 -76.5792 229° Southwest 477 549 32,000  Level Washington Center
Tue 08:58:00 AM 39.2478 -76.7253 231° Southwest 477 549 32,000  Level Washington Center
Tue 08:59:00 AM 39.1717 -76.8444 231° Southwest 477 549 32,000  Level Washington Center
Tue 09:00:01 AM 39.0783 -76.9872 230° Southwest 477 549 32,000  Level Washington Center
Tue 09:01:02 AM 38.9958 -77.0900 224° Southwest 477 549 32,000  Level Washington Center
Tue 09:02:00 AM 38.8942 -77.2025 221° Southwest 477 549 32,000  Level Washington Center
Tue 09:03:01 AM 38.7947 -77.3122 221° Southwest 482 555 32,000  Level Washington Center
Tue 09:04:01 AM 38.6972 -77.4269 223° Southwest 482 555 32,000  Level Washington Center
Tue 09:05:02 AM 38.6056 -77.5469 226° Southwest 477 549 32,000  Level Washington Center
Tue 09:06:00 AM 38.5011 -77.6794 225° Southwest 477 549 32,000 -454 Level Washington Center
Tue 09:07:01 AM 38.4094 -77.7989 226° Southwest 477 549 31,100 -934 Descending Washington Center
Tue 09:08:02 AM 38.3175 -77.9178 225° Southwest 477 549 30,100 -1,008 Descending Washington Center
Tue 09:09:00 AM 38.2400 -78.0422 232° Southwest 472 543 29,100 -1,008 Descending Washington Center
Tue 09:10:01 AM 38.1786 -78.1803 241° Southwest 460 529 28,100 -992 Descending Washington Center
Tue 09:11:01 AM 38.1194 -78.3131 241° Southwest 447 514 27,100 -992 Descending Washington Center
Tue 09:12:02 AM 38.0644 -78.4428 242° Southwest 435 501 26,100 -1,008 Descending Washington Center
Tue 09:13:00 AM 38.0136 -78.5569 241° Southwest 422 486 25,100 -1,008 Descending Washington Center
Tue 09:14:01 AM 37.9333 -78.6747 229° Southwest 417 480 24,100 -1,091 Descending Washington Center
Tue 09:15:01 AM 37.8597 -78.7850 230° Southwest 417 480 22,900 -1,059 Descending Washington Center
Tue 09:16:00 AM 37.7800 -78.8814 224° Southwest 410 472 22,000 -450 Descending Washington Center
Tue 09:17:01 AM 37.6758 -78.9503 208° Southwest 409 471 22,000  Level Washington Center
Tue 09:18:01 AM 37.5694 -79.0217 208° Southwest 424 488 22,000  Level Washington Center
Tue 09:19:02 AM 37.4631 -79.0928 208° Southwest 431 496 22,000  Level Washington Center
Tue 09:20:00 AM 37.3544 -79.1661 208° Southwest 443 510 22,000  Level Washington Center
Tue 09:21:01 AM 37.2525 -79.2317 207° Southwest 443 510 22,000  Level Washington Center
Tue 09:22:02 AM 37.1547 -79.2922 206° Southwest 420 483 22,000 -958 Level Washington Center
Tue 09:23:00 AM 37.0589 -79.3553 208° Southwest 406 467 20,100 -1,983 Descending Washington Center
Tue 09:24:00 AM 36.9650 -79.4131 206° Southwest 395 455 18,100 -1,934 Descending Washington Center
Tue 09:25:01 AM 36.8736 -79.4683 206° Southwest 384 442 16,200 -1,869 Descending Washington Center
Tue 09:26:02 AM 36.7822 -79.5233 206° Southwest 374 430 14,300 -1,869 Descending Washington Center
Tue 09:28:00 AM 36.7507 -79.7558 265° West  Level FlightAware Approximate
Tue 09:35:00 AM 36.1945 -79.9833 180° South  Level FlightAware Approximate
Tue 09:36:00 AM 36.0904 -79.9667 180° South  Level FlightAware Approximate
Tue 09:37:00 AM 36.0776 -79.9483 28° Northeast  Level FlightAware Approximate
Tue 09:38:00 AM 36.1000 -79.9333 28° Northeast  Level FlightAware Approximate
Tue 09:39:00 AM 36.1013 -79.9411 28° Northeast  Level Estimated
Tue 09:40:00 AM 36.1000 -79.9333 28° Northeast  Level FlightAware Approximate
Tue 09:41:00 AM 36.1013 -79.9411 28° Northeast  Level Estimated
Tue 09:42:00 AM 36.1000 -79.9333 28° Northeast  Level FlightAware Approximate

Login

Don't have an account? Register now (free) for customized features, flight alerts, and more!